createdAt,value
2018-05-28T00:01:31.519Z,18.40
2018-05-28T00:03:59.039Z,18.30
2018-05-28T00:06:27.330Z,18.30
2018-05-28T00:08:55.069Z,18.30
2018-05-28T00:11:23.354Z,18.30
2018-05-28T00:13:51.701Z,18.30
2018-05-28T00:16:19.257Z,18.30
2018-05-28T00:18:47.673Z,18.20
2018-05-28T00:21:15.463Z,18.20
2018-05-28T00:23:43.353Z,18.20
2018-05-28T00:26:10.910Z,18.10
2018-05-28T00:28:38.455Z,18.10
2018-05-28T00:31:06.591Z,18.10
2018-05-28T00:33:34.103Z,18.10
2018-05-28T00:36:01.616Z,18.00
2018-05-28T00:38:29.159Z,18.00
2018-05-28T00:40:57.440Z,18.00
2018-05-28T00:43:24.959Z,18.00
2018-05-28T00:45:53.262Z,18.10
2018-05-28T00:48:20.788Z,18.10
2018-05-28T00:50:48.486Z,18.00
2018-05-28T00:53:16.808Z,17.90
2018-05-28T00:55:51.038Z,17.90
2018-05-28T00:58:18.595Z,17.90
2018-05-28T01:00:46.115Z,17.80
2018-05-28T01:03:15.407Z,17.80
2018-05-28T01:05:43.718Z,17.80
2018-05-28T01:08:11.227Z,17.80
2018-05-28T01:10:39.531Z,17.80
2018-05-28T01:13:07.131Z,17.80
2018-05-28T01:15:34.643Z,17.80
2018-05-28T01:18:02.998Z,17.60
2018-05-28T01:20:30.535Z,17.60
2018-05-28T01:22:58.046Z,17.60
2018-05-28T01:25:25.990Z,17.50
2018-05-28T01:27:54.323Z,17.30
2018-05-28T01:30:22.720Z,17.30
2018-05-28T01:32:50.226Z,17.10
2018-05-28T01:35:17.804Z,17.10
2018-05-28T01:37:45.329Z,17.00
2018-05-28T01:40:23.615Z,17.00
2018-05-28T01:47:23.103Z,16.90
2018-05-28T01:49:50.619Z,16.90
2018-05-28T01:52:18.138Z,16.80
2018-05-28T01:54:46.127Z,16.90
2018-05-28T01:57:15.363Z,17.00
2018-05-28T01:59:43.654Z,17.00
2018-05-28T02:02:11.207Z,17.00
2018-05-28T02:04:38.718Z,17.00
2018-05-28T02:07:06.243Z,17.00
2018-05-28T02:09:33.787Z,16.90
2018-05-28T02:12:01.312Z,16.90
2018-05-28T02:14:28.884Z,16.90
2018-05-28T02:16:56.459Z,16.90
2018-05-28T02:19:23.985Z,16.80
2018-05-28T02:21:51.498Z,16.70
2018-05-28T02:24:19.037Z,16.70
2018-05-28T02:26:46.791Z,16.50
2018-05-28T02:29:26.254Z,16.50
2018-05-28T02:33:54.095Z,16.50
2018-05-28T02:36:22.007Z,16.40
2018-05-28T02:38:49.548Z,16.40
2018-05-28T02:41:17.062Z,16.20
2018-05-28T02:43:45.378Z,16.10
2018-05-28T02:46:13.682Z,16.00
2018-05-28T02:48:41.202Z,16.00
2018-05-28T02:51:09.507Z,16.00
2018-05-28T02:53:37.034Z,15.90
2018-05-28T02:56:05.309Z,15.80
2018-05-28T02:58:33.926Z,15.80
2018-05-28T03:01:01.447Z,15.80
2018-05-28T03:03:29.732Z,15.90
2018-05-28T03:05:57.289Z,15.90
2018-05-28T03:08:25.576Z,15.90
2018-05-28T03:10:53.102Z,15.90
2018-05-28T03:13:20.647Z,15.90
2018-05-28T03:15:48.171Z,15.90
2018-05-28T03:18:16.406Z,15.90
2018-05-28T03:20:45.337Z,16.10
2018-05-28T03:23:14.558Z,16.00
2018-05-28T03:25:42.084Z,16.10
2018-05-28T03:28:09.791Z,16.10
2018-05-28T03:30:37.328Z,16.10
2018-05-28T03:33:04.859Z,16.10
2018-05-28T03:35:32.420Z,16.20
2018-05-28T03:37:59.946Z,16.20
2018-05-28T03:40:28.234Z,16.20
2018-05-28T03:42:57.155Z,16.10
2018-05-28T03:45:24.679Z,16.10
2018-05-28T03:47:52.195Z,16.20
2018-05-28T03:50:19.817Z,16.20
2018-05-28T03:52:47.385Z,16.20
2018-05-28T03:55:15.526Z,16.30
2018-05-28T03:57:43.866Z,16.50
2018-05-28T04:00:23.211Z,16.50
2018-05-28T04:03:03.043Z,16.60
2018-05-28T04:05:42.349Z,16.60
2018-05-28T04:08:09.903Z,16.70
2018-05-28T04:10:37.418Z,16.60
2018-05-28T04:13:04.948Z,16.70
2018-05-28T04:15:32.506Z,16.70
2018-05-28T04:18:00.028Z,16.70
2018-05-28T04:20:27.550Z,16.80
2018-05-28T04:22:55.798Z,16.80
2018-05-28T04:25:23.327Z,16.80
2018-05-28T04:27:50.858Z,16.80
2018-05-28T04:30:18.948Z,16.90
2018-05-28T04:32:46.478Z,17.00
2018-05-28T04:35:20.626Z,17.00
2018-05-28T04:37:48.155Z,17.10
2018-05-28T04:40:16.523Z,17.30
2018-05-28T04:42:44.362Z,17.40
2018-05-28T04:45:11.895Z,17.30
2018-05-28T04:47:39.420Z,17.40
2018-05-28T04:50:07.727Z,17.30
2018-05-28T04:52:35.258Z,17.20
2018-05-28T04:55:03.570Z,17.40
2018-05-28T04:57:31.110Z,17.40
2018-05-28T04:59:58.664Z,17.60
2018-05-28T05:02:26.203Z,17.70
2018-05-28T05:04:54.831Z,17.80
2018-05-28T05:07:22.351Z,17.80
2018-05-28T05:09:50.630Z,18.10
2018-05-28T05:12:18.943Z,18.20
2018-05-28T05:14:46.487Z,18.20
2018-05-28T05:17:16.303Z,18.50
2018-05-28T05:19:43.858Z,18.50
2018-05-28T05:22:11.413Z,18.60
2018-05-28T05:24:38.935Z,18.70
2018-05-28T05:27:06.522Z,18.70
2018-05-28T05:29:34.846Z,19.00
2018-05-28T05:32:02.491Z,19.00
2018-05-28T05:34:30.050Z,19.10
2018-05-28T05:36:57.587Z,19.20
2018-05-28T05:39:25.112Z,19.50
2018-05-28T05:41:52.667Z,19.80
2018-05-28T05:44:20.191Z,20.20
2018-05-28T05:46:47.714Z,20.90
2018-05-28T05:49:17.094Z,21.90
2018-05-28T05:51:45.383Z,23.30
2018-05-28T05:54:23.598Z,23.30
2018-05-28T06:00:44.065Z,26.00
2018-05-28T06:03:11.596Z,26.60
2018-05-28T06:05:39.130Z,27.30
2018-05-28T06:08:07.758Z,28.50
2018-05-28T06:10:35.291Z,28.40
2018-05-28T06:13:02.831Z,29.30
2018-05-28T06:15:31.197Z,31.20
2018-05-28T06:17:59.487Z,32.00
2018-05-28T06:20:27.904Z,32.40
2018-05-28T06:22:56.111Z,32.30
2018-05-28T06:25:23.631Z,33.00
2018-05-28T06:27:51.166Z,33.10
2018-05-28T06:30:19.106Z,33.60
2018-05-28T06:32:46.971Z,34.40
2018-05-28T06:35:16.284Z,35.00
2018-05-28T06:37:44.607Z,35.60
2018-05-28T06:40:12.149Z,35.50
2018-05-28T06:42:39.815Z,36.20
2018-05-28T06:45:07.359Z,36.10
2018-05-28T06:47:36.187Z,36.00
2018-05-28T06:50:03.726Z,36.40
2018-05-28T06:52:31.294Z,36.80
2018-05-28T06:54:58.818Z,37.30
2018-05-28T06:57:26.535Z,37.60
2018-05-28T06:59:54.087Z,38.20
2018-05-28T07:02:21.622Z,38.20
2018-05-28T07:04:49.151Z,38.50
2018-05-28T07:07:16.719Z,38.80
2018-05-28T07:09:44.256Z,39.20
2018-05-28T07:12:12.581Z,39.80
2018-05-28T07:14:40.513Z,39.80
2018-05-28T07:17:08.791Z,40.10
2018-05-28T07:19:39.522Z,39.90
2018-05-28T07:22:07.490Z,39.80
2018-05-28T07:24:35.029Z,39.70
2018-05-28T07:27:02.555Z,40.10
2018-05-28T07:29:30.163Z,39.30
2018-05-28T07:31:57.646Z,38.90
2018-05-28T07:34:26.295Z,39.30
2018-05-28T07:36:54.630Z,39.60
2018-05-28T07:39:22.156Z,38.90
2018-05-28T07:41:49.686Z,38.70
2018-05-28T07:44:17.235Z,39.60
2018-05-28T07:46:44.773Z,40.60
2018-05-28T07:49:12.282Z,41.00
2018-05-28T07:51:39.823Z,41.60
2018-05-28T07:54:08.214Z,41.40
2018-05-28T07:56:37.034Z,41.40
2018-05-28T07:59:05.451Z,41.60
2018-05-28T08:01:32.982Z,42.40
2018-05-28T08:04:01.007Z,42.60
2018-05-28T08:06:28.728Z,41.50
2018-05-28T08:08:56.255Z,41.80
2018-05-28T08:11:23.769Z,42.10
2018-05-28T08:13:52.192Z,41.60
2018-05-28T08:16:19.727Z,41.60
2018-05-28T08:18:48.026Z,42.70
2018-05-28T08:21:16.740Z,42.70
2018-05-28T08:23:44.284Z,43.10
2018-05-28T08:26:11.835Z,44.20
2018-05-28T08:28:39.480Z,45.30
2018-05-28T08:31:06.935Z,45.70
2018-05-28T08:33:34.461Z,46.20
2018-05-28T08:36:03.084Z,46.00
2018-05-28T08:38:30.747Z,46.00
2018-05-28T08:40:58.263Z,46.10
2018-05-28T08:43:27.238Z,45.40
2018-05-28T08:45:55.629Z,46.30
2018-05-28T08:48:23.254Z,47.20
2018-05-28T08:50:50.824Z,47.60
2018-05-28T08:53:18.345Z,47.50
2018-05-28T08:55:45.981Z,47.40
2018-05-28T08:58:15.634Z,47.00
2018-05-28T09:00:43.198Z,47.00
2018-05-28T09:03:10.745Z,47.00
2018-05-28T09:05:38.801Z,47.50
2018-05-28T09:08:06.327Z,47.50
2018-05-28T09:10:33.842Z,47.30
2018-05-28T09:13:01.399Z,47.00
2018-05-28T09:15:28.914Z,46.10
2018-05-28T09:17:57.212Z,46.80
2018-05-28T09:20:24.771Z,46.80
2018-05-28T09:22:52.310Z,47.10
2018-05-28T09:25:20.731Z,47.60
2018-05-28T09:27:48.611Z,47.60
2018-05-28T09:30:17.162Z,47.30
2018-05-28T09:32:44.692Z,47.30
2018-05-28T09:35:13.963Z,47.40
2018-05-28T09:37:41.614Z,47.40
2018-05-28T09:40:09.127Z,47.60
2018-05-28T09:42:36.691Z,47.30
2018-05-28T09:45:04.211Z,46.80
2018-05-28T09:47:31.731Z,45.80
2018-05-28T09:49:59.716Z,45.90
2018-05-28T09:52:27.229Z,45.10
2018-05-28T09:54:55.524Z,44.40
2018-05-28T09:57:23.170Z,44.40
2018-05-28T09:59:50.704Z,44.10
2018-05-28T10:02:18.276Z,42.80
2018-05-28T10:04:45.803Z,41.00
2018-05-28T10:07:14.544Z,40.00
2018-05-28T10:09:42.440Z,39.00
2018-05-28T10:12:10.041Z,38.40
2018-05-28T10:14:38.350Z,36.70
2018-05-28T10:17:05.892Z,36.70
2018-05-28T10:19:33.459Z,35.70
2018-05-28T10:22:01.047Z,34.70
2018-05-28T10:24:29.299Z,33.20
2018-05-28T10:26:56.876Z,33.10
2018-05-28T10:29:24.401Z,32.70
2018-05-28T10:31:52.682Z,31.60
2018-05-28T10:34:20.696Z,31.60
2018-05-28T10:36:48.238Z,31.00
2018-05-28T10:39:16.982Z,30.80
2018-05-28T10:41:44.615Z,30.70
2018-05-28T10:44:13.769Z,30.80
2018-05-28T10:46:41.300Z,30.80
2018-05-28T10:49:09.618Z,30.80
2018-05-28T10:51:37.132Z,30.80
2018-05-28T10:54:05.435Z,30.40
2018-05-28T10:56:33.723Z,30.30
2018-05-28T10:59:01.274Z,30.30
2018-05-28T11:01:28.807Z,30.00
2018-05-28T11:03:57.136Z,30.40
2018-05-28T11:06:24.685Z,30.30
2018-05-28T11:08:53.363Z,30.10
2018-05-28T11:11:20.923Z,29.90
2018-05-28T11:13:48.453Z,30.00
2018-05-28T11:16:17.225Z,29.80
2018-05-28T11:18:45.959Z,29.60
2018-05-28T11:21:24.675Z,29.60
2018-05-28T11:26:21.105Z,29.20
2018-05-28T11:28:48.622Z,29.30
2018-05-28T11:31:16.479Z,29.40
2018-05-28T11:33:44.025Z,29.40
2018-05-28T11:36:11.547Z,29.50
2018-05-28T11:38:39.068Z,29.60
2018-05-28T11:41:07.739Z,29.60
2018-05-28T11:43:35.254Z,29.60
2018-05-28T11:46:02.768Z,29.70
2018-05-28T11:48:30.666Z,29.70
2018-05-28T11:50:58.198Z,29.90
2018-05-28T11:53:25.719Z,30.10
2018-05-28T11:55:53.431Z,30.30
2018-05-28T11:58:20.954Z,30.40
2018-05-28T12:00:48.471Z,30.40
2018-05-28T12:03:17.070Z,30.30
2018-05-28T12:05:44.603Z,30.30
2018-05-28T12:08:13.827Z,30.50
2018-05-28T12:10:41.370Z,30.50
2018-05-28T12:13:08.891Z,30.50
2018-05-28T12:15:36.418Z,30.60
2018-05-28T12:18:04.727Z,30.30
2018-05-28T12:20:32.247Z,30.30
2018-05-28T12:22:59.782Z,30.50
2018-05-28T12:25:27.671Z,30.50
2018-05-28T12:27:55.241Z,30.60
2018-05-28T12:30:22.758Z,30.70
2018-05-28T12:32:50.323Z,30.80
2018-05-28T12:35:17.844Z,30.90
2018-05-28T12:37:45.360Z,31.00
2018-05-28T12:40:25.697Z,30.80
2018-05-28T12:46:58.766Z,30.60
2018-05-28T12:49:26.291Z,30.60
2018-05-28T12:51:53.814Z,30.60
2018-05-28T12:54:21.385Z,30.60
2018-05-28T12:56:49.416Z,30.80
2018-05-28T12:59:16.945Z,30.80
2018-05-28T13:01:44.536Z,30.80
2018-05-28T13:04:12.063Z,30.80
2018-05-28T13:06:39.586Z,30.90
2018-05-28T13:09:07.486Z,30.80
2018-05-28T13:11:35.028Z,30.80
2018-05-28T13:14:02.542Z,30.70
2018-05-28T13:16:30.099Z,30.70
2018-05-28T13:18:57.616Z,30.60
2018-05-28T13:21:25.175Z,30.60
2018-05-28T13:23:52.728Z,30.60
2018-05-28T13:26:20.242Z,30.50
2018-05-28T13:28:48.531Z,30.40
2018-05-28T13:31:16.461Z,30.40
2018-05-28T13:33:43.975Z,30.40
2018-05-28T13:36:11.537Z,30.50
2018-05-28T13:38:39.097Z,30.50
2018-05-28T13:41:06.615Z,30.40
2018-05-28T13:43:34.140Z,30.30
2018-05-28T13:46:01.679Z,30.30
2018-05-28T13:48:30.251Z,30.40
2018-05-28T13:50:57.767Z,30.50
2018-05-28T13:53:25.348Z,30.40
2018-05-28T13:55:53.692Z,30.30
2018-05-28T13:58:21.215Z,30.30
2018-05-28T14:00:49.130Z,30.30
2018-05-28T14:03:16.656Z,30.30
2018-05-28T14:05:44.193Z,30.40
2018-05-28T14:08:11.762Z,30.50
2018-05-28T14:10:39.280Z,30.40
2018-05-28T14:13:07.579Z,30.30
2018-05-28T14:15:35.613Z,30.30
2018-05-28T14:18:03.128Z,30.30
2018-05-28T14:20:31.421Z,30.20
2018-05-28T14:22:59.739Z,30.30
2018-05-28T14:25:28.039Z,30.20
2018-05-28T14:27:55.610Z,30.30
2018-05-28T14:30:23.167Z,30.20
2018-05-28T14:32:50.729Z,30.00
2018-05-28T14:35:18.256Z,30.10
2018-05-28T14:37:46.627Z,30.30
2018-05-28T14:40:15.527Z,30.30
2018-05-28T14:42:43.834Z,30.40
2018-05-28T14:45:11.391Z,30.40
2018-05-28T14:47:38.918Z,30.40
2018-05-28T14:50:07.486Z,30.20
2018-05-28T14:52:35.044Z,30.10
2018-05-28T14:55:02.561Z,30.10
2018-05-28T14:57:30.121Z,30.10
2018-05-28T14:59:58.243Z,30.20
2018-05-28T15:02:26.542Z,30.30
2018-05-28T15:04:54.074Z,30.30
2018-05-28T15:07:21.676Z,30.30
2018-05-28T15:09:49.190Z,30.30
2018-05-28T15:12:17.594Z,30.40
2018-05-28T15:14:45.150Z,30.40
2018-05-28T15:17:13.606Z,30.50
2018-05-28T15:19:41.124Z,30.50
2018-05-28T15:22:08.762Z,30.60
2018-05-28T15:24:36.286Z,30.60
2018-05-28T15:27:04.607Z,30.60
2018-05-28T15:29:32.179Z,30.50
2018-05-28T15:32:00.455Z,30.40
2018-05-28T15:34:27.971Z,30.20
2018-05-28T15:36:56.284Z,29.80
2018-05-28T15:39:23.886Z,29.80
2018-05-28T15:41:51.417Z,29.80
2018-05-28T15:44:19.016Z,29.80
2018-05-28T15:46:47.307Z,29.80
2018-05-28T15:49:15.479Z,29.80
2018-05-28T15:51:43.554Z,29.90
2018-05-28T15:54:11.106Z,30.00
2018-05-28T15:56:38.672Z,30.10
2018-05-28T15:59:06.210Z,30.20
2018-05-28T16:01:34.539Z,30.30
2018-05-28T16:04:02.151Z,30.30
2018-05-28T16:06:30.787Z,30.30
2018-05-28T16:08:58.543Z,30.30
2018-05-28T16:11:26.083Z,30.20
2018-05-28T16:13:53.671Z,30.10
2018-05-28T16:16:21.195Z,29.80
2018-05-28T16:18:48.730Z,29.70
2018-05-28T16:21:16.502Z,29.60
2018-05-28T16:23:44.793Z,29.50
2018-05-28T16:26:12.399Z,29.40
2018-05-28T16:28:40.463Z,29.40
2018-05-28T16:31:08.117Z,29.30
2018-05-28T16:33:35.652Z,29.30
2018-05-28T16:36:03.257Z,29.20
2018-05-28T16:38:30.781Z,29.20
2018-05-28T16:40:58.308Z,29.10
2018-05-28T16:43:25.864Z,28.90
2018-05-28T16:45:54.179Z,28.90
2018-05-28T16:48:21.716Z,28.80
2018-05-28T16:50:49.894Z,28.90
2018-05-28T16:53:17.998Z,28.80
2018-05-28T16:55:46.467Z,28.80
2018-05-28T16:58:15.494Z,28.80
2018-05-28T17:00:43.065Z,28.70
2018-05-28T17:03:10.571Z,28.60
2018-05-28T17:05:38.146Z,28.60
2018-05-28T17:08:06.548Z,28.50
2018-05-28T17:10:34.075Z,28.50
2018-05-28T17:13:02.138Z,28.40
2018-05-28T17:15:29.719Z,28.40
2018-05-28T17:17:57.239Z,28.20
2018-05-28T17:20:24.797Z,28.20
2018-05-28T17:22:52.310Z,28.20
2018-05-28T17:25:19.914Z,28.10
2018-05-28T17:27:47.470Z,28.10
2018-05-28T17:30:16.454Z,28.00
2018-05-28T17:32:44.787Z,28.00
2018-05-28T17:35:12.739Z,27.90
2018-05-28T17:37:40.270Z,27.90
2018-05-28T17:40:07.820Z,27.90
2018-05-28T17:42:35.371Z,27.90
2018-05-28T17:45:03.751Z,27.70
2018-05-28T17:47:31.297Z,27.70
2018-05-28T17:49:58.858Z,27.70
2018-05-28T17:52:26.397Z,27.60
2018-05-28T17:54:55.000Z,27.40
2018-05-28T17:57:22.605Z,27.40
2018-05-28T17:59:50.129Z,27.30
2018-05-28T18:02:17.658Z,27.30
2018-05-28T18:04:45.236Z,27.30
2018-05-28T18:07:14.547Z,27.30
2018-05-28T18:09:42.164Z,27.30
2018-05-28T18:12:09.725Z,27.30
2018-05-28T18:14:37.269Z,27.20
2018-05-28T18:17:04.832Z,27.20
2018-05-28T18:19:32.903Z,27.10
2018-05-28T18:22:00.552Z,27.10
2018-05-28T18:24:28.087Z,27.00
2018-05-28T18:26:55.639Z,26.90
2018-05-28T18:29:23.928Z,26.80
2018-05-28T18:31:51.448Z,26.80
2018-05-28T18:34:18.996Z,26.70
2018-05-28T18:36:46.540Z,26.70
2018-05-28T18:39:25.968Z,26.50
2018-05-28T18:45:04.878Z,26.30
2018-05-28T18:47:32.447Z,26.20
2018-05-28T18:49:59.974Z,26.10
2018-05-28T18:52:28.636Z,26.00
2018-05-28T18:54:56.962Z,25.90
2018-05-28T18:57:24.495Z,25.70
2018-05-28T18:59:53.457Z,25.60
2018-05-28T19:02:20.991Z,25.60
2018-05-28T19:04:48.512Z,25.60
2018-05-28T19:07:16.459Z,25.40
2018-05-28T19:09:43.991Z,25.30
2018-05-28T19:12:12.288Z,25.10
2018-05-28T19:14:39.883Z,25.00
2018-05-28T19:17:07.414Z,25.00
2018-05-28T19:19:34.942Z,25.00
2018-05-28T19:22:02.542Z,24.90
2018-05-28T19:24:30.868Z,24.80
2018-05-28T19:26:58.378Z,24.70
2018-05-28T19:29:26.721Z,24.70
2018-05-28T19:31:54.262Z,24.70
2018-05-28T19:34:22.502Z,24.70
2018-05-28T19:36:50.065Z,24.70
2018-05-28T19:39:18.363Z,24.60
2018-05-28T19:41:45.903Z,24.60
2018-05-28T19:44:15.476Z,24.70
2018-05-28T19:46:43.971Z,24.70
2018-05-28T19:49:11.545Z,24.60
2018-05-28T19:51:39.127Z,24.60
2018-05-28T19:54:06.695Z,24.60
2018-05-28T19:56:35.045Z,24.60
2018-05-28T19:59:03.463Z,24.60
2018-05-28T20:01:31.446Z,24.50
2018-05-28T20:03:58.971Z,24.50
2018-05-28T20:06:26.563Z,24.60
2018-05-28T20:08:54.097Z,24.30
2018-05-28T20:11:21.699Z,24.20
2018-05-28T20:13:49.276Z,24.20
2018-05-28T20:16:17.644Z,23.90
2018-05-28T20:18:45.145Z,23.90
2018-05-28T20:21:14.393Z,23.80
2018-05-28T20:23:41.933Z,23.80
2018-05-28T20:26:09.856Z,23.80
2018-05-28T20:28:38.528Z,23.70
2018-05-28T20:31:06.839Z,23.60
2018-05-28T20:33:34.433Z,23.60
2018-05-28T20:36:02.008Z,23.70
2018-05-28T20:38:29.570Z,23.70
2018-05-28T20:40:57.124Z,23.70
2018-05-28T20:43:24.696Z,23.80
2018-05-28T20:45:52.259Z,23.70
2018-05-28T20:48:19.783Z,23.60
2018-05-28T20:50:47.832Z,23.50
2018-05-28T20:53:16.309Z,23.40
2018-05-28T20:55:43.849Z,23.40
2018-05-28T20:58:11.863Z,23.30
2018-05-28T21:00:39.391Z,23.40
2018-05-28T21:03:07.686Z,23.30
2018-05-28T21:05:35.293Z,23.30
2018-05-28T21:08:03.597Z,23.30
2018-05-28T21:10:31.126Z,23.30
2018-05-28T21:12:59.743Z,23.30
2018-05-28T21:15:27.262Z,23.30
2018-05-28T21:17:55.593Z,23.40
2018-05-28T21:20:23.137Z,23.30
2018-05-28T21:22:50.677Z,23.40
2018-05-28T21:25:18.302Z,23.30
2018-05-28T21:27:45.858Z,23.30
2018-05-28T21:30:25.707Z,23.10
2018-05-28T21:33:54.682Z,23.10
2018-05-28T21:36:22.225Z,23.00
2018-05-28T21:38:49.756Z,23.00
2018-05-28T21:41:18.133Z,22.90
2018-05-28T21:43:46.419Z,22.80
2018-05-28T21:46:15.644Z,22.80
2018-05-28T21:48:43.199Z,22.80
2018-05-28T21:51:10.736Z,22.70
2018-05-28T21:53:38.262Z,22.60
2018-05-28T21:56:06.191Z,22.60
2018-05-28T21:58:34.211Z,22.60
2018-05-28T22:01:02.507Z,22.50
2018-05-28T22:03:30.063Z,22.50
2018-05-28T22:05:57.603Z,22.50
2018-05-28T22:08:25.890Z,22.40
2018-05-28T22:10:54.200Z,22.30
2018-05-28T22:13:21.714Z,22.20
2018-05-28T22:15:49.236Z,22.20
2018-05-28T22:18:17.315Z,22.10
2018-05-28T22:20:44.837Z,22.10
2018-05-28T22:23:12.354Z,22.00
2018-05-28T22:25:39.898Z,22.00
2018-05-28T22:28:07.427Z,21.90
2018-05-28T22:30:34.940Z,21.80
2018-05-28T22:33:02.497Z,21.80
2018-05-28T22:35:30.775Z,21.60
2018-05-28T22:37:59.073Z,21.50
2018-05-28T22:40:26.693Z,21.50
2018-05-28T22:42:54.219Z,21.50
2018-05-28T22:45:21.734Z,21.50
2018-05-28T22:47:49.273Z,21.50
2018-05-28T22:50:16.799Z,21.50
2018-05-28T22:52:44.328Z,21.40
2018-05-28T22:55:11.875Z,21.50
2018-05-28T22:57:39.399Z,21.50
2018-05-28T23:00:07.148Z,21.40
2018-05-28T23:02:35.189Z,21.40
2018-05-28T23:05:02.701Z,21.20
2018-05-28T23:07:31.003Z,21.10
2018-05-28T23:09:58.546Z,21.10
2018-05-28T23:12:26.095Z,21.00
2018-05-28T23:14:53.612Z,20.90
2018-05-28T23:17:21.161Z,20.80
2018-05-28T23:19:48.684Z,20.60
2018-05-28T23:22:16.397Z,20.50
2018-05-28T23:24:43.995Z,20.40
2018-05-28T23:27:12.289Z,20.40
2018-05-28T23:29:40.593Z,20.30
2018-05-28T23:32:08.158Z,20.30
2018-05-28T23:34:35.679Z,20.30
2018-05-28T23:37:03.992Z,20.20
2018-05-28T23:39:31.558Z,20.20
2018-05-28T23:41:59.092Z,20.20
2018-05-28T23:44:26.634Z,20.20
2018-05-28T23:46:54.805Z,20.20
2018-05-28T23:49:23.118Z,20.10
2018-05-28T23:51:50.646Z,20.10
2018-05-28T23:54:18.225Z,20.10
2018-05-28T23:56:45.739Z,20.20
2018-05-28T23:59:14.543Z,20.10
